Time;durP1;ratioP1;P1;durP2;ratioP2;P2;SDS_P1;SDS_P2;PMS_P1;PMS_P2;Temp;Humidity;BMP_temperature;BMP_pressure;BME280_temperature;BME280_humidity;BME280_pressure;Samples;Min_cycle;Max_cycle;Signal;HPM_P1;HPM_P2
2021/01/21 00:00:20;;;;;;;4.33;2.33;;;;;;;;;;5053537;28;20285;-78
2021/01/21 00:03:05;;;;;;;2.80;2.40;;;;;;;;;;5053621;28;20251;-78
2021/01/21 00:05:49;;;;;;;3.67;2.17;;;;;;;;;;5053064;28;20209;-78
2021/01/21 00:08:34;;;;;;;2.27;2.07;;;;;;;;;;5053310;28;20221;-78
2021/01/21 00:11:18;;;;;;;3.70;2.17;;;;;;;;;;5053285;28;20209;-78
2021/01/21 00:14:03;;;;;;;3.53;2.30;;;;;;;;;;5053039;28;20232;-78
2021/01/21 00:16:48;;;;;;;3.30;2.10;;;;;;;;;;5051506;28;20271;-77
2021/01/21 00:19:32;;;;;;;2.33;1.80;;;;;;;;;;5053220;28;20247;-78
2021/01/21 00:22:17;;;;;;;3.07;2.00;;;;;;;;;;5053164;28;20208;-77
2021/01/21 00:25:01;;;;;;;3.10;2.10;;;;;;;;;;5053269;28;20213;-78
2021/01/21 00:27:46;;;;;;;4.43;2.20;;;;;;;;;;5052303;28;20744;-78
2021/01/21 00:30:30;;;;;;;3.13;1.73;;;;;;;;;;5053241;28;20686;-78
2021/01/21 00:33:16;;;;;;;2.40;2.20;;;;;;;;;;5052517;28;20263;-78
2021/01/21 00:36:00;;;;;;;3.00;2.00;;;;;;;;;;5052540;28;20565;-78
2021/01/21 00:38:45;;;;;;;2.00;1.77;;;;;;;;;;5049216;28;20652;-78
2021/01/21 00:41:29;;;;;;;3.97;1.87;;;;;;;;;;5051868;28;20262;-78
2021/01/21 00:44:14;;;;;;;2.47;1.90;;;;;;;;;;5052626;28;20795;-77
2021/01/21 00:46:58;;;;;;;2.47;1.90;;;;;;;;;;5051427;28;21470;-78
2021/01/21 00:49:43;;;;;;;2.90;1.87;;;;;;;;;;5032777;28;20213;-78
2021/01/21 00:52:28;;;;;;;4.77;2.00;;;;;;;;;;5032629;28;20344;-78
2021/01/21 00:55:13;;;;;;;4.20;1.83;;;;;;;;;;5032700;28;20342;-77
2021/01/21 00:57:57;;;;;;;3.23;1.83;;;;;;;;;;5032067;28;20249;-78
2021/01/21 01:00:42;;;;;;;2.37;1.90;;;;;;;;;;5032542;28;20322;-77
2021/01/21 01:03:26;;;;;;;3.27;2.00;;;;;;;;;;5032468;28;20257;-76
2021/01/21 01:06:12;;;;;;;3.67;1.93;;;;;;;;;;5032054;28;20201;-77
2021/01/21 01:08:56;;;;;;;2.67;1.83;;;;;;;;;;5032355;28;20202;-77
2021/01/21 01:11:40;;;;;;;3.47;1.80;;;;;;;;;;5032187;28;20312;-77
2021/01/21 01:14:25;;;;;;;3.43;1.93;;;;;;;;;;5032103;28;20260;-77
2021/01/21 01:17:09;;;;;;;4.50;1.90;;;;;;;;;;5034498;28;20220;-77
2021/01/21 01:19:54;;;;;;;2.33;1.87;;;;;;;;;;5052120;28;20687;-77
2021/01/21 01:22:39;;;;;;;2.80;1.67;;;;;;;;;;5051334;28;20205;-77
2021/01/21 01:25:24;;;;;;;2.97;1.97;;;;;;;;;;5052019;28;20320;-77
2021/01/21 01:28:08;;;;;;;2.23;1.90;;;;;;;;;;5051382;28;20221;-77
2021/01/21 01:30:53;;;;;;;3.70;1.73;;;;;;;;;;5051601;28;20209;-77
2021/01/21 01:33:37;;;;;;;4.13;1.67;;;;;;;;;;5051605;28;20224;-77
2021/01/21 01:36:22;;;;;;;2.70;2.00;;;;;;;;;;5051234;28;20566;-77
2021/01/21 01:39:07;;;;;;;3.03;1.77;;;;;;;;;;5051779;28;20772;-77
2021/01/21 01:41:52;;;;;;;2.77;1.97;;;;;;;;;;5051723;28;20201;-77
2021/01/21 01:44:37;;;;;;;4.40;2.20;;;;;;;;;;5050520;28;20575;-77
2021/01/21 01:47:21;;;;;;;3.00;1.80;;;;;;;;;;5050929;28;20244;-77
2021/01/21 01:50:07;;;;;;;3.13;1.97;;;;;;;;;;5051459;28;20201;-77
2021/01/21 01:52:51;;;;;;;2.90;1.80;;;;;;;;;;5051272;28;20332;-77
2021/01/21 01:55:38;;;;;;;4.33;1.73;;;;;;;;;;5051454;28;20236;-77
2021/01/21 01:58:24;;;;;;;4.13;1.73;;;;;;;;;;5051300;28;20294;-77
2021/01/21 02:01:09;;;;;;;2.73;2.00;;;;;;;;;;5051372;28;20205;-77
2021/01/21 02:03:53;;;;;;;3.63;1.53;;;;;;;;;;5051308;28;20213;-77
2021/01/21 02:06:37;;;;;;;1.80;1.63;;;;;;;;;;5051169;28;20366;-77
2021/01/21 02:09:22;;;;;;;2.33;1.90;;;;;;;;;;5051024;28;20201;-77
2021/01/21 02:12:15;;;;;;;3.77;2.00;;;;;;;;;;5078620;22;20291;-78
2021/01/21 02:15:04;;;;;;;2.73;1.67;;;;;;;;;;5074437;28;20637;-77
2021/01/21 02:17:51;;;;;;;3.07;1.80;;;;;;;;;;5082360;28;20228;-77
2021/01/21 02:20:49;;;;;;;3.70;1.77;;;;;;;;;;5091511;28;20204;-78
2021/01/21 02:23:57;;;;;;;2.30;1.70;;;;;;;;;;5084752;28;20286;-78
2021/01/21 02:26:45;;;;;;;2.10;1.60;;;;;;;;;;5041322;28;20227;-78
2021/01/21 02:29:31;;;;;;;2.88;1.80;;;;;;;;;;5090857;28;20411;-78
2021/01/21 02:32:31;;;;;;;2.10;1.80;;;;;;;;;;5091209;28;20701;-78
2021/01/21 02:35:17;;;;;;;2.93;2.00;;;;;;;;;;5082346;28;20204;-78
2021/01/21 02:38:03;;;;;;;1.97;1.70;;;;;;;;;;5090624;28;20245;-77
2021/01/21 02:40:48;;;;;;;2.53;1.70;;;;;;;;;;5091122;28;20230;-77
2021/01/21 02:43:33;;;;;;;3.80;1.80;;;;;;;;;;5091278;28;20204;-78
2021/01/21 02:46:18;;;;;;;1.90;1.80;;;;;;;;;;5090593;28;20254;-78
2021/01/21 02:49:02;;;;;;;2.47;1.80;;;;;;;;;;5091039;28;20709;-77
2021/01/21 02:51:52;;;;;;;1.93;1.70;;;;;;;;;;5090946;28;20678;-76
2021/01/21 02:54:40;;;;;;;2.27;1.87;;;;;;;;;;5090869;28;20321;-77
2021/01/21 02:57:27;;;;;;;2.80;1.80;;;;;;;;;;5094495;28;20243;-78
2021/01/21 03:00:12;;;;;;;2.53;1.50;;;;;;;;;;5095249;28;20204;-77
2021/01/21 03:02:59;;;;;;;3.07;1.60;;;;;;;;;;5095515;28;20686;-77
2021/01/21 03:05:48;;;;;;;3.50;1.70;;;;;;;;;;5074704;28;20212;-77
2021/01/21 03:08:34;;;;;;;1.43;1.33;;;;;;;;;;5074764;28;20196;-77
2021/01/21 03:11:18;;;;;;;1.53;1.27;;;;;;;;;;5074463;28;20271;-77
2021/01/21 03:14:03;;;;;;;1.73;1.37;;;;;;;;;;5074358;28;20232;-78
2021/01/21 03:16:47;;;;;;;3.00;1.50;;;;;;;;;;5074086;28;20213;-77
2021/01/21 03:19:31;;;;;;;2.37;1.20;;;;;;;;;;5074527;28;20246;-77
2021/01/21 03:22:16;;;;;;;2.77;1.40;;;;;;;;;;5073491;28;20232;-77
2021/01/21 03:25:01;;;;;;;4.07;1.40;;;;;;;;;;5074125;28;20739;-78
2021/01/21 03:27:46;;;;;;;1.73;1.47;;;;;;;;;;5073711;28;20220;-77
2021/01/21 03:30:30;;;;;;;1.40;1.30;;;;;;;;;;5073934;28;20320;-77
2021/01/21 03:33:15;;;;;;;2.30;1.40;;;;;;;;;;5074118;28;20236;-78
2021/01/21 03:35:59;;;;;;;1.83;1.47;;;;;;;;;;5073665;28;20204;-77
2021/01/21 03:38:44;;;;;;;1.70;1.33;;;;;;;;;;5073900;28;20228;-78
2021/01/21 03:41:29;;;;;;;1.57;1.40;;;;;;;;;;5074057;28;20212;-77
2021/01/21 03:44:14;;;;;;;2.27;1.37;;;;;;;;;;5074006;28;20201;-78
2021/01/21 03:46:58;;;;;;;2.97;1.30;;;;;;;;;;5072421;28;20300;-78
2021/01/21 03:49:42;;;;;;;1.20;1.10;;;;;;;;;;5073836;28;20208;-78
2021/01/21 03:52:27;;;;;;;1.67;1.13;;;;;;;;;;5077101;28;20211;-78
2021/01/21 03:55:12;;;;;;;2.00;1.10;;;;;;;;;;5093750;28;20259;-77
2021/01/21 03:57:57;;;;;;;1.27;1.10;;;;;;;;;;5092286;28;20256;-77
2021/01/21 04:00:42;;;;;;;2.60;1.20;;;;;;;;;;5094138;28;20204;-77
2021/01/21 04:03:26;;;;;;;1.58;1.30;;;;;;;;;;5091771;28;20943;-77
2021/01/21 04:06:11;;;;;;;2.43;1.37;;;;;;;;;;5093054;28;20247;-77
2021/01/21 04:08:56;;;;;;;1.53;1.30;;;;;;;;;;5093531;28;20600;-78
2021/01/21 04:11:40;;;;;;;2.73;1.70;;;;;;;;;;5093520;28;20208;-78
2021/01/21 04:14:26;;;;;;;1.50;1.40;;;;;;;;;;5093349;28;20246;-78
2021/01/21 04:17:10;;;;;;;3.23;1.60;;;;;;;;;;5093160;28;20258;-76
2021/01/21 04:19:55;;;;;;;4.33;1.87;;;;;;;;;;5078632;28;20199;-78
2021/01/21 04:22:39;;;;;;;3.63;1.00;;;;;;;;;;5073172;28;20207;-77
2021/01/21 04:25:24;;;;;;;5.50;1.37;;;;;;;;;;5073179;28;20686;-76
2021/01/21 04:28:08;;;;;;;3.97;1.07;;;;;;;;;;5067491;28;20228;-76
2021/01/21 04:30:54;;;;;;;3.23;1.10;;;;;;;;;;5072783;28;20720;-76
2021/01/21 04:33:38;;;;;;;2.90;1.03;;;;;;;;;;5073058;28;20712;-76
2021/01/21 04:36:23;;;;;;;1.97;0.87;;;;;;;;;;5072436;28;20270;-76
2021/01/21 04:39:07;;;;;;;3.77;1.17;;;;;;;;;;5072997;28;20573;-76
2021/01/21 04:41:52;;;;;;;2.50;1.07;;;;;;;;;;5073350;28;20196;-76
2021/01/21 04:44:36;;;;;;;2.77;1.00;;;;;;;;;;5072990;28;20612;-77
2021/01/21 04:47:22;;;;;;;3.87;0.93;;;;;;;;;;5072312;28;20223;-76
2021/01/21 04:50:07;;;;;;;3.60;1.30;;;;;;;;;;5071815;28;20255;-76
2021/01/21 04:52:52;;;;;;;1.37;1.03;;;;;;;;;;5092629;28;20252;-76
2021/01/21 04:55:37;;;;;;;4.00;1.40;;;;;;;;;;5092891;28;20209;-76
2021/01/21 04:58:25;;;;;;;4.27;1.23;;;;;;;;;;5091032;28;20228;-76
2021/01/21 05:01:10;;;;;;;2.13;1.53;;;;;;;;;;5092789;28;20240;-76
2021/01/21 05:03:55;;;;;;;5.80;1.77;;;;;;;;;;5091706;28;20242;-75
2021/01/21 05:06:40;;;;;;;3.20;1.40;;;;;;;;;;5071851;28;20306;-75
2021/01/21 05:09:24;;;;;;;5.80;1.67;;;;;;;;;;5072391;28;20570;-76
2021/01/21 05:12:09;;;;;;;2.60;1.20;;;;;;;;;;5072313;28;20214;-77
2021/01/21 05:14:53;;;;;;;2.57;1.40;;;;;;;;;;5071889;28;20223;-76
2021/01/21 05:17:38;;;;;;;2.47;1.10;;;;;;;;;;5071594;28;20612;-77
2021/01/21 05:20:24;;;;;;;3.00;1.30;;;;;;;;;;5072026;28;20247;-76
2021/01/21 05:23:08;;;;;;;3.23;1.33;;;;;;;;;;5071996;28;20262;-75
2021/01/21 05:25:53;;;;;;;2.53;1.30;;;;;;;;;;5070588;28;20215;-75
2021/01/21 05:28:37;;;;;;;2.90;1.70;;;;;;;;;;5071873;28;20253;-75
2021/01/21 05:31:21;;;;;;;3.10;1.30;;;;;;;;;;5071980;28;20303;-76
2021/01/21 05:34:08;;;;;;;4.43;1.40;;;;;;;;;;5071947;28;20234;-76
2021/01/21 05:36:56;;;;;;;3.03;1.47;;;;;;;;;;5071459;28;20227;-76
2021/01/21 05:39:40;;;;;;;3.83;1.60;;;;;;;;;;5071743;28;20198;-76
2021/01/21 05:42:25;;;;;;;6.70;1.80;;;;;;;;;;5071689;28;20291;-76
2021/01/21 05:45:10;;;;;;;4.50;1.70;;;;;;;;;;5071666;28;20310;-76
2021/01/21 05:47:55;;;;;;;5.37;1.90;;;;;;;;;;5071502;28;20219;-76
2021/01/21 05:50:40;;;;;;;6.38;2.30;;;;;;;;;;5070762;28;20484;-76
2021/01/21 05:53:25;;;;;;;6.03;1.70;;;;;;;;;;5071654;28;20227;-76
2021/01/21 05:56:10;;;;;;;4.80;2.00;;;;;;;;;;5070915;28;20700;-77
2021/01/21 05:58:54;;;;;;;5.47;1.80;;;;;;;;;;5071541;28;20729;-76
2021/01/21 06:01:39;;;;;;;4.50;1.57;;;;;;;;;;5071729;28;20256;-76
2021/01/21 06:04:25;;;;;;;5.57;1.87;;;;;;;;;;5071320;28;20211;-76
2021/01/21 06:07:10;;;;;;;5.90;1.77;;;;;;;;;;5070773;28;20252;-76
2021/01/21 06:09:57;;;;;;;5.40;2.07;;;;;;;;;;5071257;28;20326;-76
2021/01/21 06:12:43;;;;;;;4.93;2.00;;;;;;;;;;5071406;28;20696;-76
2021/01/21 06:15:28;;;;;;;7.93;2.10;;;;;;;;;;5071029;28;20727;-76
2021/01/21 06:18:12;;;;;;;4.80;2.07;;;;;;;;;;5071227;28;20206;-76
2021/01/21 06:20:56;;;;;;;5.57;1.90;;;;;;;;;;5071469;28;20211;-76
2021/01/21 06:23:43;;;;;;;7.97;2.30;;;;;;;;;;5071273;28;20252;-75
2021/01/21 06:26:32;;;;;;;5.10;1.70;;;;;;;;;;5071024;28;20726;-76
2021/01/21 06:29:17;;;;;;;7.87;2.60;;;;;;;;;;5071123;28;20549;-76
2021/01/21 06:32:02;;;;;;;6.33;2.23;;;;;;;;;;5071031;28;20202;-76
2021/01/21 06:34:47;;;;;;;6.67;2.00;;;;;;;;;;5070775;28;20641;-76
2021/01/21 06:37:32;;;;;;;5.87;2.40;;;;;;;;;;5070598;28;20278;-76
2021/01/21 06:40:17;;;;;;;6.60;2.30;;;;;;;;;;5070943;28;20253;-76
2021/01/21 06:43:07;;;;;;;7.10;2.23;;;;;;;;;;5070898;28;20227;-76
2021/01/21 06:45:52;;;;;;;5.10;2.07;;;;;;;;;;5070804;28;20242;-76
2021/01/21 06:48:36;;;;;;;5.77;2.00;;;;;;;;;;5070998;28;20616;-76
2021/01/21 06:51:21;;;;;;;8.50;2.20;;;;;;;;;;5071089;28;20318;-76
2021/01/21 06:54:08;;;;;;;4.23;1.93;;;;;;;;;;5070692;28;20720;-76
2021/01/21 06:56:53;;;;;;;8.00;2.88;;;;;;;;;;5069612;28;20410;-76
2021/01/21 06:59:58;;;;;;;4.77;2.30;;;;;;;;;;5070827;28;20215;-76
2021/01/21 07:02:45;;;;;;;6.80;2.50;;;;;;;;;;5070864;28;20206;-75
2021/01/21 07:05:29;;;;;;;8.17;2.37;;;;;;;;;;5070731;28;20215;-77
2021/01/21 07:08:14;;;;;;;9.17;2.40;;;;;;;;;;5070488;28;20206;-76
2021/01/21 07:10:59;;;;;;;7.90;2.33;;;;;;;;;;5070555;28;20278;-76
2021/01/21 07:13:45;;;;;;;4.57;1.90;;;;;;;;;;5071081;28;20240;-76
2021/01/21 07:16:29;;;;;;;8.00;2.37;;;;;;;;;;5069580;28;20307;-76
2021/01/21 07:19:15;;;;;;;6.70;2.27;;;;;;;;;;5082621;28;20286;-76
2021/01/21 07:21:59;;;;;;;5.77;1.97;;;;;;;;;;5090636;28;20226;-76
2021/01/21 07:24:53;;;;;;;7.20;2.33;;;;;;;;;;5090729;28;20201;-76
2021/01/21 07:27:40;;;;;;;7.47;2.13;;;;;;;;;;5082257;28;20230;-76
2021/01/21 07:30:25;;;;;;;11.63;2.20;;;;;;;;;;5082824;28;20205;-75
2021/01/21 07:33:20;;;;;;;7.00;2.92;;;;;;;;;;5089709;28;20395;-76
2021/01/21 07:36:25;;;;;;;7.37;2.40;;;;;;;;;;5090178;28;20279;-76
2021/01/21 07:39:10;;;;;;;6.90;2.33;;;;;;;;;;5069683;28;20283;-76
2021/01/21 07:41:54;;;;;;;7.30;2.40;;;;;;;;;;5065118;28;20205;-76
2021/01/21 07:44:53;;;;;;;8.00;2.60;;;;;;;;;;5067663;28;20228;-74
2021/01/21 07:47:38;;;;;;;8.23;2.30;;;;;;;;;;5061579;28;20314;-76
2021/01/21 07:50:29;;;;;;;7.80;2.07;;;;;;;;;;5069435;28;20329;-74
2021/01/21 07:53:22;;;;;;;9.13;2.57;;;;;;;;;;5053769;28;20211;-72
2021/01/21 07:56:06;;;;;;;6.37;2.20;;;;;;;;;;5063895;28;20248;-76
2021/01/21 07:58:59;;;;;;;8.17;2.70;;;;;;;;;;5073383;28;20244;-78
2021/01/21 08:01:54;;;;;;;9.57;2.50;;;;;;;;;;5072548;28;20678;-77
2021/01/21 08:04:56;;;;;;;4.57;2.43;;;;;;;;;;5073427;28;20263;-81
2021/01/21 08:07:45;;;;;;;7.00;2.17;;;;;;;;;;5072797;28;20208;-76
2021/01/21 08:10:31;;;;;;;8.90;2.80;;;;;;;;;;5079385;28;20205;-79
2021/01/21 08:13:16;;;;;;;9.07;2.90;;;;;;;;;;5072701;28;20247;-81
2021/01/21 08:16:01;;;;;;;8.23;2.83;;;;;;;;;;5069356;28;20289;-77
2021/01/21 08:18:46;;;;;;;12.50;3.33;;;;;;;;;;5077804;28;20217;-77
2021/01/21 08:21:30;;;;;;;6.43;3.00;;;;;;;;;;5069118;28;20196;-76
2021/01/21 08:24:15;;;;;;;6.27;2.73;;;;;;;;;;5067363;28;20294;-78
2021/01/21 08:27:03;;;;;;;14.23;3.20;;;;;;;;;;5059476;28;20636;-82
2021/01/21 08:29:48;;;;;;;7.40;2.93;;;;;;;;;;5072581;28;20210;-76
2021/01/21 08:32:32;;;;;;;9.37;2.80;;;;;;;;;;5071887;28;20769;-81
2021/01/21 08:35:19;;;;;;;7.80;2.53;;;;;;;;;;5072412;28;20278;-78
2021/01/21 08:38:04;;;;;;;9.43;3.13;;;;;;;;;;5070174;28;20771;-79
2021/01/21 08:40:49;;;;;;;14.07;3.00;;;;;;;;;;5070877;28;20267;-77
2021/01/21 08:43:38;;;;;;;9.40;2.93;;;;;;;;;;5070493;28;20215;-84
2021/01/21 08:46:24;;;;;;;10.97;2.93;;;;;;;;;;5060400;28;20736;-77
2021/01/21 08:49:09;;;;;;;12.07;3.40;;;;;;;;;;5055082;28;20258;-84
2021/01/21 08:52:05;;;;;;;8.43;3.13;;;;;;;;;;5071283;28;20286;-76
2021/01/21 08:54:52;;;;;;;12.17;3.23;;;;;;;;;;5069650;28;20299;-76
2021/01/21 08:57:36;;;;;;;10.50;2.67;;;;;;;;;;5071926;28;20205;-76
2021/01/21 09:00:23;;;;;;;8.67;2.77;;;;;;;;;;5071423;28;20208;-77
2021/01/21 09:03:07;;;;;;;7.97;2.87;;;;;;;;;;5069307;28;20261;-76
2021/01/21 09:05:55;;;;;;;10.07;3.00;;;;;;;;;;5051927;28;20228;-76
2021/01/21 09:08:47;;;;;;;8.53;2.90;;;;;;;;;;5086622;28;20737;-77
2021/01/21 09:11:33;;;;;;;6.63;2.93;;;;;;;;;;5090545;28;20232;-73
2021/01/21 09:14:18;;;;;;;10.65;3.20;;;;;;;;;;5073390;28;20512;-74
2021/01/21 09:17:12;;;;;;;9.30;3.00;;;;;;;;;;5051628;28;20307;-74
2021/01/21 09:19:56;;;;;;;8.73;3.00;;;;;;;;;;5064291;28;20195;-78
2021/01/21 09:22:40;;;;;;;9.80;3.07;;;;;;;;;;5071539;28;20715;-77
2021/01/21 09:25:25;;;;;;;13.67;3.43;;;;;;;;;;5071821;28;20573;-77
2021/01/21 09:28:13;;;;;;;13.57;3.27;;;;;;;;;;5070234;28;20201;-77
2021/01/21 09:30:57;;;;;;;9.33;3.20;;;;;;;;;;5070459;28;20250;-75
2021/01/21 09:33:43;;;;;;;11.23;2.70;;;;;;;;;;5071448;28;20197;-73
2021/01/21 09:36:28;;;;;;;7.03;2.53;;;;;;;;;;5071016;28;20321;-77
2021/01/21 09:39:12;;;;;;;8.43;2.90;;;;;;;;;;5071611;28;20312;-77
2021/01/21 09:41:56;;;;;;;10.53;2.93;;;;;;;;;;5071402;28;20203;-78
2021/01/21 09:44:41;;;;;;;7.60;2.43;;;;;;;;;;5070014;28;20249;-80
2021/01/21 09:47:25;;;;;;;8.77;2.93;;;;;;;;;;5071222;28;20206;-79
2021/01/21 09:50:11;;;;;;;13.17;3.70;;;;;;;;;;5072161;28;20203;-86
2021/01/21 09:52:56;;;;;;;5.70;2.30;;;;;;;;;;5074464;28;20223;-80
2021/01/21 09:55:40;;;;;;;7.97;2.60;;;;;;;;;;5071155;28;20310;-75
2021/01/21 09:58:25;;;;;;;11.60;3.00;;;;;;;;;;5070361;28;20213;-76
2021/01/21 10:01:09;;;;;;;9.93;2.67;;;;;;;;;;5070925;28;20230;-76
2021/01/21 10:03:54;;;;;;;7.40;2.40;;;;;;;;;;5070892;28;20690;-76
2021/01/21 10:06:39;;;;;;;9.67;2.47;;;;;;;;;;5070247;28;20289;-86
2021/01/21 10:09:24;;;;;;;9.57;2.67;;;;;;;;;;5071519;28;20277;-78
2021/01/21 10:12:09;;;;;;;10.13;2.90;;;;;;;;;;5051139;28;20247;-76
2021/01/21 10:14:56;;;;;;;8.87;2.70;;;;;;;;;;5050532;28;20268;-79
2021/01/21 10:17:40;;;;;;;8.32;3.30;;;;;;;;;;5050822;28;20412;-84
2021/01/21 10:20:25;;;;;;;6.43;2.60;;;;;;;;;;5050586;28;20224;-74
2021/01/21 10:23:10;;;;;;;8.80;2.73;;;;;;;;;;5068754;28;20208;-78
2021/01/21 10:25:54;;;;;;;6.10;2.50;;;;;;;;;;5077027;28;20227;-76
2021/01/21 10:28:39;;;;;;;8.07;2.57;;;;;;;;;;5075229;28;20346;-77
2021/01/21 10:31:24;;;;;;;7.67;2.53;;;;;;;;;;5050915;28;20255;-77
2021/01/21 10:34:08;;;;;;;11.50;3.03;;;;;;;;;;5060429;28;20244;-78
2021/01/21 10:36:53;;;;;;;8.37;2.70;;;;;;;;;;5069782;28;20278;-77
2021/01/21 10:39:38;;;;;;;7.17;2.70;;;;;;;;;;5070914;28;20211;-82
2021/01/21 10:42:22;;;;;;;7.07;2.33;;;;;;;;;;5071004;28;20202;-78
2021/01/21 10:45:07;;;;;;;7.00;2.33;;;;;;;;;;5070768;28;20219;-75
2021/01/21 10:47:52;;;;;;;10.30;2.77;;;;;;;;;;5058513;28;20207;-75
2021/01/21 10:50:36;;;;;;;7.50;2.50;;;;;;;;;;5069776;28;20706;-76
2021/01/21 10:53:21;;;;;;;7.28;2.95;;;;;;;;;;5057719;28;20422;-76
2021/01/21 10:56:06;;;;;;;7.33;2.53;;;;;;;;;;5070080;28;20227;-76
2021/01/21 10:58:50;;;;;;;6.13;3.57;;;;;;;;;;5069896;28;20207;-76
2021/01/21 11:01:35;;;;;;;7.37;2.80;;;;;;;;;;5070222;28;20235;-74
2021/01/21 11:04:20;;;;;;;5.23;2.07;;;;;;;;;;5070429;28;20206;-76
2021/01/21 11:07:04;;;;;;;7.77;2.80;;;;;;;;;;5067977;28;20642;-74
2021/01/21 11:09:49;;;;;;;8.20;2.40;;;;;;;;;;5076164;28;20212;-80
2021/01/21 11:12:35;;;;;;;7.53;2.40;;;;;;;;;;5070272;28;20219;-76
2021/01/21 11:15:20;;;;;;;8.03;2.50;;;;;;;;;;5070084;28;20246;-79
2021/01/21 11:18:04;;;;;;;6.47;2.50;;;;;;;;;;5073726;28;20214;-78
2021/01/21 11:20:48;;;;;;;8.33;2.50;;;;;;;;;;5073477;28;20685;-73
2021/01/21 11:23:33;;;;;;;7.47;2.17;;;;;;;;;;5074108;28;20202;-73
2021/01/21 11:26:17;;;;;;;4.87;2.33;;;;;;;;;;5073677;28;20243;-73
2021/01/21 11:29:03;;;;;;;5.33;2.40;;;;;;;;;;5073081;28;20219;-72
2021/01/21 11:31:47;;;;;;;5.00;2.20;;;;;;;;;;5073940;28;20647;-74
2021/01/21 11:34:31;;;;;;;5.53;1.90;;;;;;;;;;5084253;28;20255;-75
2021/01/21 11:37:16;;;;;;;6.50;2.50;;;;;;;;;;5093791;28;20224;-76
2021/01/21 11:40:00;;;;;;;6.93;2.33;;;;;;;;;;5094358;28;20230;-76
2021/01/21 11:42:45;;;;;;;7.87;2.50;;;;;;;;;;5094249;28;20280;-77
2021/01/21 11:45:30;;;;;;;6.50;2.33;;;;;;;;;;5094421;28;20274;-78
2021/01/21 11:48:15;;;;;;;5.43;2.30;;;;;;;;;;5086278;28;20212;-76
2021/01/21 11:50:59;;;;;;;7.47;2.60;;;;;;;;;;5053787;28;20258;-75
2021/01/21 11:53:44;;;;;;;6.10;2.07;;;;;;;;;;5067194;28;20257;-75
2021/01/21 11:56:28;;;;;;;7.47;2.50;;;;;;;;;;5072216;28;20610;-74
2021/01/21 11:59:13;;;;;;;6.07;2.58;;;;;;;;;;5052766;28;21091;-76
2021/01/21 12:01:58;;;;;;;5.90;2.17;;;;;;;;;;5056442;28;20237;-76
2021/01/21 12:04:42;;;;;;;4.90;2.23;;;;;;;;;;5068691;28;20201;-75
2021/01/21 12:07:27;;;;;;;5.07;2.30;;;;;;;;;;5072919;28;20263;-74
2021/01/21 12:10:16;;;;;;;4.70;2.10;;;;;;;;;;5072352;28;20281;-73
2021/01/21 12:13:00;;;;;;;4.73;2.13;;;;;;;;;;5062345;28;20201;-73
2021/01/21 12:15:45;;;;;;;4.80;2.47;;;;;;;;;;5072757;28;20612;-73
2021/01/21 12:18:30;;;;;;;7.57;2.17;;;;;;;;;;5072846;28;20223;-72
2021/01/21 12:21:15;;;;;;;4.17;1.87;;;;;;;;;;5063063;28;20667;-73
2021/01/21 12:23:59;;;;;;;5.03;2.40;;;;;;;;;;5068861;28;20203;-75
2021/01/21 12:26:44;;;;;;;5.17;1.97;;;;;;;;;;5072426;28;20293;-75
2021/01/21 12:29:28;;;;;;;6.03;2.10;;;;;;;;;;5071592;28;20212;-75
2021/01/21 12:32:13;;;;;;;6.30;2.30;;;;;;;;;;5069818;28;20947;-75
2021/01/21 12:34:58;;;;;;;8.10;2.40;;;;;;;;;;5071431;28;20235;-75
2021/01/21 12:37:42;;;;;;;4.63;2.20;;;;;;;;;;5072227;28;20807;-75
2021/01/21 12:40:27;;;;;;;6.60;2.30;;;;;;;;;;5076965;28;20660;-76
2021/01/21 12:43:12;;;;;;;8.40;2.70;;;;;;;;;;5093221;28;20561;-76
2021/01/21 12:45:56;;;;;;;5.87;2.13;;;;;;;;;;5092328;28;20227;-75
2021/01/21 12:48:40;;;;;;;9.47;2.07;;;;;;;;;;5092720;28;20581;-75
2021/01/21 12:51:26;;;;;;;7.13;2.03;;;;;;;;;;5087420;28;20266;-76
2021/01/21 12:54:10;;;;;;;3.87;2.00;;;;;;;;;;5072543;28;20224;-76
2021/01/21 12:56:55;;;;;;;3.80;1.93;;;;;;;;;;5071935;28;20713;-76
2021/01/21 12:59:40;;;;;;;5.83;2.23;;;;;;;;;;5072280;28;20666;-75
2021/01/21 13:02:26;;;;;;;6.13;2.00;;;;;;;;;;5068271;28;20205;-76
2021/01/21 13:05:11;;;;;;;3.90;2.00;;;;;;;;;;5086276;28;20229;-75
2021/01/21 13:07:56;;;;;;;4.63;1.90;;;;;;;;;;5087760;28;20208;-75
2021/01/21 13:10:41;;;;;;;5.90;2.00;;;;;;;;;;5071996;28;20267;-75
2021/01/21 13:13:26;;;;;;;3.57;1.90;;;;;;;;;;5072085;28;20781;-76
2021/01/21 13:16:11;;;;;;;4.97;2.07;;;;;;;;;;5069729;28;20340;-76
2021/01/21 13:18:55;;;;;;;5.27;2.30;;;;;;;;;;5092263;28;20618;-76
2021/01/21 13:21:41;;;;;;;5.70;2.10;;;;;;;;;;5092356;28;20678;-76
2021/01/21 13:24:26;;;;;;;6.17;2.33;;;;;;;;;;5085093;28;20207;-76
2021/01/21 13:27:11;;;;;;;7.63;2.27;;;;;;;;;;5078868;28;20713;-76
2021/01/21 13:29:55;;;;;;;6.13;2.30;;;;;;;;;;5081917;28;20301;-76
2021/01/21 13:32:40;;;;;;;5.00;2.30;;;;;;;;;;5085899;28;20215;-76
2021/01/21 13:35:24;;;;;;;4.83;2.10;;;;;;;;;;5090592;28;20248;-76
2021/01/21 13:38:09;;;;;;;5.67;2.33;;;;;;;;;;5090800;28;20924;-76
2021/01/21 13:40:54;;;;;;;5.40;2.30;;;;;;;;;;5092126;28;20721;-76
2021/01/21 13:43:39;;;;;;;5.40;1.93;;;;;;;;;;5084715;28;20221;-75
2021/01/21 13:46:23;;;;;;;4.93;2.00;;;;;;;;;;5070092;28;20235;-74
2021/01/21 13:49:08;;;;;;;5.30;1.80;;;;;;;;;;5071590;28;20224;-73
2021/01/21 13:51:53;;;;;;;3.83;2.10;;;;;;;;;;5064751;28;20204;-74
2021/01/21 13:54:37;;;;;;;6.43;2.20;;;;;;;;;;5054400;28;20729;-76
2021/01/21 13:57:23;;;;;;;6.70;2.70;;;;;;;;;;5073800;28;20200;-80
2021/01/21 14:00:08;;;;;;;4.97;2.60;;;;;;;;;;5069950;28;20620;-90
2021/01/21 14:02:52;;;;;;;5.37;2.10;;;;;;;;;;5070397;28;20251;-75
2021/01/21 14:05:37;;;;;;;5.37;2.00;;;;;;;;;;5069248;28;20324;-87
2021/01/21 14:08:21;;;;;;;5.87;2.20;;;;;;;;;;5069910;28;20243;-78
2021/01/21 14:11:06;;;;;;;5.07;1.87;;;;;;;;;;5071215;28;20686;-80
2021/01/21 14:13:51;;;;;;;5.93;2.45;;;;;;;;;;5070296;28;20489;-78
2021/01/21 14:16:36;;;;;;;6.60;1.90;;;;;;;;;;5070371;28;20767;-81
2021/01/21 14:19:20;;;;;;;6.83;2.43;;;;;;;;;;5054605;28;20212;-78
2021/01/21 14:22:05;;;;;;;6.90;2.10;;;;;;;;;;5051175;28;20201;-77
2021/01/21 14:24:49;;;;;;;5.87;2.20;;;;;;;;;;5069654;28;20781;-82
2021/01/21 14:27:34;;;;;;;7.30;2.00;;;;;;;;;;5050922;28;20292;-81
2021/01/21 14:30:20;;;;;;;3.43;2.10;;;;;;;;;;5068147;28;20208;-78
2021/01/21 14:33:05;;;;;;;7.57;2.30;;;;;;;;;;5069725;28;20647;-79
2021/01/21 14:35:49;;;;;;;6.20;2.13;;;;;;;;;;5090583;28;20239;-83
2021/01/21 14:38:34;;;;;;;4.90;2.07;;;;;;;;;;5091178;28;20282;-85
2021/01/21 14:41:18;;;;;;;6.30;2.43;;;;;;;;;;5051392;28;20212;-84
2021/01/21 14:44:03;;;;;;;7.30;2.00;;;;;;;;;;5059074;28;20245;-90
2021/01/21 14:46:48;;;;;;;6.80;2.63;;;;;;;;;;5059116;22;20661;-79
2021/01/21 14:49:33;;;;;;;5.17;2.30;;;;;;;;;;5030591;28;20311;-77
2021/01/21 14:52:17;;;;;;;5.63;2.33;;;;;;;;;;5031611;28;20229;-77
2021/01/21 14:55:03;;;;;;;7.33;2.17;;;;;;;;;;5033816;28;20233;-77
2021/01/21 14:57:47;;;;;;;5.73;2.23;;;;;;;;;;5034311;28;20286;-77
2021/01/21 15:00:31;;;;;;;5.67;2.20;;;;;;;;;;5033001;28;20205;-76
2021/01/21 15:03:17;;;;;;;5.43;2.40;;;;;;;;;;5031201;28;20598;-76
2021/01/21 15:06:01;;;;;;;6.97;2.43;;;;;;;;;;5014406;28;20232;-76
2021/01/21 15:08:46;;;;;;;5.30;1.97;;;;;;;;;;5016703;28;20218;-76
2021/01/21 15:11:30;;;;;;;7.60;2.50;;;;;;;;;;5014118;28;20265;-76
2021/01/21 15:14:15;;;;;;;5.87;2.13;;;;;;;;;;5014011;28;20257;-76
2021/01/21 15:16:59;;;;;;;5.95;2.40;;;;;;;;;;5013066;28;20424;-76
2021/01/21 15:19:45;;;;;;;5.77;2.07;;;;;;;;;;5014391;28;20204;-77
2021/01/21 15:22:29;;;;;;;7.27;2.00;;;;;;;;;;5014359;28;20206;-76
2021/01/21 15:25:14;;;;;;;4.37;2.03;;;;;;;;;;5013864;28;20277;-77
2021/01/21 15:27:58;;;;;;;8.37;2.57;;;;;;;;;;5013816;28;20858;-79
2021/01/21 15:30:43;;;;;;;6.90;2.10;;;;;;;;;;5014489;28;20224;-74
2021/01/21 15:33:28;;;;;;;3.67;2.10;;;;;;;;;;5014316;28;20589;-74
2021/01/21 15:36:13;;;;;;;5.03;2.13;;;;;;;;;;5013369;28;20238;-75
2021/01/21 15:38:58;;;;;;;7.77;5.37;;;;;;;;;;5032892;28;20345;-71
2021/01/21 15:41:42;;;;;;;5.20;1.90;;;;;;;;;;5014100;28;20426;-75
2021/01/21 15:44:29;;;;;;;6.37;2.10;;;;;;;;;;5021414;28;20253;-74
2021/01/21 15:47:13;;;;;;;3.60;2.10;;;;;;;;;;5030759;28;20846;-71
2021/01/21 15:49:58;;;;;;;8.03;2.23;;;;;;;;;;5033880;28;20692;-73
2021/01/21 15:52:43;;;;;;;5.90;2.33;;;;;;;;;;5032439;28;20404;-71
2021/01/21 15:55:27;;;;;;;5.27;2.03;;;;;;;;;;5033031;28;20237;-73
2021/01/21 15:58:12;;;;;;;6.97;2.23;;;;;;;;;;5032081;28;20317;-74
2021/01/21 16:00:56;;;;;;;6.73;2.17;;;;;;;;;;5033682;28;20213;-75
2021/01/21 16:03:41;;;;;;;5.27;2.37;;;;;;;;;;5032189;28;20237;-75
2021/01/21 16:06:25;;;;;;;6.27;2.33;;;;;;;;;;5031239;28;20286;-72
2021/01/21 16:09:12;;;;;;;6.50;1.97;;;;;;;;;;5032707;28;20429;-75
2021/01/21 16:11:57;;;;;;;7.60;2.47;;;;;;;;;;5032658;28;20204;-78
2021/01/21 16:14:41;;;;;;;3.60;1.87;;;;;;;;;;5033284;28;20233;-75
2021/01/21 16:17:26;;;;;;;6.07;2.20;;;;;;;;;;5033006;28;20672;-74
2021/01/21 16:20:12;;;;;;;4.87;1.80;;;;;;;;;;5033292;28;20201;-73
2021/01/21 16:22:56;;;;;;;6.40;3.10;;;;;;;;;;5033191;28;20202;-75
2021/01/21 16:25:42;;;;;;;5.10;2.23;;;;;;;;;;5032851;28;20232;-74
2021/01/21 16:28:26;;;;;;;6.87;2.80;;;;;;;;;;5033417;28;20241;-75
2021/01/21 16:31:11;;;;;;;7.23;2.60;;;;;;;;;;5033175;28;20295;-75